createdAt,value
2023-03-18T00:00:51.063Z,2.00
2023-03-18T00:03:22.313Z,1.90
2023-03-18T00:05:52.432Z,2.00
2023-03-18T00:08:22.295Z,1.60
2023-03-18T00:10:53.082Z,1.90
2023-03-18T00:13:30.441Z,2.40
2023-03-18T00:16:00.949Z,1.90
2023-03-18T00:18:31.071Z,1.80
2023-03-18T00:21:02.847Z,2.10
2023-03-18T00:23:33.932Z,1.70
2023-03-18T00:26:04.299Z,1.70
2023-03-18T00:28:35.153Z,2.00
2023-03-18T00:31:08.094Z,2.10
2023-03-18T00:33:40.393Z,2.30
2023-03-18T00:36:25.886Z,2.80
2023-03-18T00:39:02.804Z,2.00
2023-03-18T00:41:36.652Z,2.10
2023-03-18T00:44:08.110Z,1.80
2023-03-18T00:46:55.093Z,2.50
2023-03-18T00:49:27.184Z,2.30
2023-03-18T00:51:57.748Z,1.80
2023-03-18T00:54:26.866Z,1.90
2023-03-18T00:56:57.452Z,1.80
2023-03-18T00:59:27.092Z,1.80
2023-03-18T01:01:56.526Z,1.70
2023-03-18T01:04:27.729Z,1.70
2023-03-18T01:06:57.343Z,1.90
2023-03-18T01:09:31.535Z,2.10
2023-03-18T01:12:03.490Z,2.30
2023-03-18T01:14:32.859Z,2.10
2023-03-18T01:17:02.244Z,1.90
2023-03-18T01:19:32.155Z,2.20
2023-03-18T01:22:03.621Z,2.20
2023-03-18T01:24:35.320Z,2.10
2023-03-18T01:27:05.669Z,2.10
2023-03-18T01:29:35.850Z,2.00
2023-03-18T01:32:06.401Z,2.20
2023-03-18T01:34:36.477Z,2.20
2023-03-18T01:37:06.070Z,2.30
2023-03-18T01:39:36.654Z,2.10
2023-03-18T01:42:06.757Z,1.90
2023-03-18T01:44:37.249Z,2.50
2023-03-18T01:47:11.745Z,2.00
2023-03-18T01:49:57.990Z,2.00
2023-03-18T01:52:32.304Z,2.20
2023-03-18T01:55:10.111Z,2.10
2023-03-18T01:57:44.406Z,1.80
2023-03-18T02:00:21.182Z,1.80
2023-03-18T02:02:53.450Z,2.20
2023-03-18T02:07:54.468Z,2.10
2023-03-18T02:10:27.105Z,1.80
2023-03-18T02:13:01.534Z,1.90
2023-03-18T02:15:35.750Z,2.00
2023-03-18T02:18:10.483Z,1.70
2023-03-18T02:20:58.381Z,2.30
2023-03-18T02:23:38.660Z,2.40
2023-03-18T02:26:17.899Z,2.20
2023-03-18T02:28:55.922Z,2.10
2023-03-18T02:31:29.501Z,1.90
2023-03-18T02:34:00.705Z,2.10
2023-03-18T02:36:33.422Z,1.90
2023-03-18T02:39:05.197Z,2.00
2023-03-18T02:41:37.038Z,2.00
2023-03-18T02:44:12.897Z,2.30
2023-03-18T02:46:57.612Z,2.60
2023-03-18T02:49:29.205Z,2.10
2023-03-18T02:52:25.500Z,2.30
2023-03-18T02:54:58.773Z,2.60
2023-03-18T02:57:28.146Z,2.60
2023-03-18T02:59:57.846Z,2.40
2023-03-18T03:02:28.417Z,2.20
2023-03-18T03:05:00.880Z,2.00
2023-03-18T03:07:30.372Z,2.20
2023-03-18T03:10:00.987Z,1.80
2023-03-18T03:12:32.525Z,2.20
2023-03-18T03:15:02.834Z,2.10
2023-03-18T03:17:33.384Z,1.70
2023-03-18T03:20:06.198Z,2.00
2023-03-18T03:22:38.444Z,1.70
2023-03-18T03:25:16.121Z,1.80
2023-03-18T03:27:58.710Z,1.90
2023-03-18T03:30:30.360Z,1.50
2023-03-18T03:33:02.316Z,1.90
2023-03-18T03:35:33.957Z,2.10
2023-03-18T03:38:03.452Z,2.10
2023-03-18T03:40:34.102Z,1.70
2023-03-18T03:43:04.561Z,1.70
2023-03-18T03:45:35.358Z,2.00
2023-03-18T03:48:05.784Z,2.10
2023-03-18T03:50:36.586Z,1.90
2023-03-18T03:53:07.023Z,2.00
2023-03-18T03:55:37.324Z,2.00
2023-03-18T03:58:10.015Z,1.90
2023-03-18T04:00:41.253Z,2.20
2023-03-18T04:03:17.862Z,2.20
2023-03-18T04:05:48.994Z,2.20
2023-03-18T04:08:21.416Z,2.00
2023-03-18T04:10:53.917Z,2.30
2023-03-18T04:13:25.266Z,1.90
2023-03-18T04:15:55.652Z,1.80
2023-03-18T04:18:25.499Z,2.10
2023-03-18T04:20:55.005Z,1.90
2023-03-18T04:23:24.263Z,1.80
2023-03-18T04:28:26.280Z,2.00
2023-03-18T04:30:56.002Z,1.90
2023-03-18T04:33:25.703Z,2.00
2023-03-18T04:35:54.927Z,1.90
2023-03-18T04:38:24.576Z,2.10
2023-03-18T04:40:54.845Z,1.90
2023-03-18T04:43:25.451Z,2.00
2023-03-18T04:45:56.329Z,1.80
2023-03-18T04:48:27.436Z,2.20
2023-03-18T04:50:57.161Z,2.10
2023-03-18T04:53:26.772Z,2.20
2023-03-18T04:55:56.374Z,1.80
2023-03-18T04:58:25.661Z,2.00
2023-03-18T05:00:56.994Z,2.40
2023-03-18T05:03:27.157Z,1.80
2023-03-18T05:05:57.505Z,2.20
2023-03-18T05:08:30.512Z,2.40
2023-03-18T05:11:00.415Z,2.10
2023-03-18T05:13:33.136Z,2.10
2023-03-18T05:16:06.384Z,2.30
2023-03-18T05:18:40.758Z,2.40
2023-03-18T05:21:14.652Z,2.10
2023-03-18T05:23:47.412Z,2.30
2023-03-18T05:26:17.227Z,1.90
2023-03-18T05:28:47.177Z,2.00
2023-03-18T05:31:17.420Z,2.00
2023-03-18T05:33:47.770Z,2.40
2023-03-18T05:36:19.222Z,2.20
2023-03-18T05:38:49.064Z,1.90
2023-03-18T05:41:18.956Z,2.00
2023-03-18T05:43:48.706Z,1.70
2023-03-18T05:46:18.472Z,2.00
2023-03-18T05:48:47.846Z,2.10
2023-03-18T05:51:17.231Z,2.10
2023-03-18T05:53:49.081Z,2.00
2023-03-18T05:56:19.066Z,2.10
2023-03-18T05:58:49.400Z,1.70
2023-03-18T06:01:20.398Z,1.80
2023-03-18T06:03:50.250Z,2.00
2023-03-18T06:06:19.721Z,2.60
2023-03-18T06:08:49.518Z,2.40
2023-03-18T06:11:19.373Z,2.60
2023-03-18T06:13:49.508Z,2.50
2023-03-18T06:16:20.213Z,2.80
2023-03-18T06:18:50.179Z,2.60
2023-03-18T06:21:19.298Z,2.70
2023-03-18T06:24:12.789Z,2.80
2023-03-18T06:26:43.729Z,2.70
2023-03-18T06:29:13.259Z,2.60
2023-03-18T06:31:43.735Z,2.50
2023-03-18T06:34:13.350Z,3.00
2023-03-18T06:36:43.906Z,2.50
2023-03-18T06:39:15.173Z,2.60
2023-03-18T06:41:48.508Z,3.00
2023-03-18T06:44:21.563Z,2.60
2023-03-18T06:46:55.275Z,3.10
2023-03-18T06:49:29.474Z,3.10
2023-03-18T06:51:59.997Z,3.00
2023-03-18T06:54:30.440Z,3.60
2023-03-18T06:57:02.444Z,2.90
2023-03-18T06:59:32.304Z,3.10
2023-03-18T07:02:01.861Z,3.30
2023-03-18T07:04:33.858Z,3.30
2023-03-18T07:07:07.413Z,2.90
2023-03-18T07:09:45.572Z,3.70
2023-03-18T07:12:17.716Z,2.90
2023-03-18T07:14:55.764Z,3.10
2023-03-18T07:17:25.207Z,3.60
2023-03-18T07:19:55.418Z,3.40
2023-03-18T07:22:30.562Z,4.00
2023-03-18T07:25:02.685Z,3.20
2023-03-18T07:27:33.274Z,3.70
2023-03-18T07:30:08.911Z,3.50
2023-03-18T07:32:41.006Z,3.50
2023-03-18T07:35:13.548Z,3.40
2023-03-18T07:37:49.811Z,3.00
2023-03-18T07:40:23.266Z,3.10
2023-03-18T07:42:53.114Z,3.00
2023-03-18T07:45:22.370Z,2.50
2023-03-18T07:47:52.421Z,2.80
2023-03-18T07:50:22.015Z,3.10
2023-03-18T07:52:51.934Z,2.70
2023-03-18T07:55:25.088Z,2.80
2023-03-18T07:57:55.043Z,2.90
2023-03-18T08:00:25.844Z,3.50
2023-03-18T08:02:55.214Z,2.80
2023-03-18T08:05:24.882Z,2.90
2023-03-18T08:07:55.190Z,3.00
2023-03-18T08:10:29.036Z,3.30
2023-03-18T08:12:59.477Z,3.10
2023-03-18T08:15:29.905Z,2.80
2023-03-18T08:18:03.751Z,2.50
2023-03-18T08:20:34.168Z,3.00
2023-03-18T08:23:04.977Z,2.70
2023-03-18T08:26:22.277Z,3.30
2023-03-18T08:38:58.967Z,2.80
2023-03-18T08:42:37.907Z,3.10
2023-03-18T08:54:48.829Z,2.60
2023-03-18T09:01:17.498Z,3.00
2023-03-18T09:03:47.923Z,2.80
2023-03-18T09:06:22.292Z,2.80
2023-03-18T09:08:56.044Z,2.60
2023-03-18T09:11:29.304Z,2.80
2023-03-18T09:14:11.110Z,3.20
2023-03-18T09:16:42.050Z,2.80
2023-03-18T09:19:12.440Z,2.60
2023-03-18T09:21:46.040Z,2.70
2023-03-18T09:24:16.733Z,2.70
2023-03-18T09:26:55.629Z,2.70
2023-03-18T09:29:27.022Z,2.90
2023-03-18T09:31:57.099Z,2.60
2023-03-18T09:34:28.736Z,2.40
2023-03-18T09:37:02.287Z,3.00
2023-03-18T09:39:32.345Z,2.80
2023-03-18T09:42:19.887Z,2.80
2023-03-18T09:45:01.767Z,2.70
2023-03-18T09:48:17.373Z,3.00
2023-03-18T09:50:56.687Z,3.10
2023-03-18T09:53:48.032Z,2.80
2023-03-18T09:56:24.411Z,3.30
2023-03-18T09:59:03.304Z,2.90
2023-03-18T10:01:37.521Z,3.20
2023-03-18T10:04:20.176Z,2.90
2023-03-18T10:06:57.939Z,2.90
2023-03-18T10:09:32.070Z,3.10
2023-03-18T10:12:11.815Z,3.50
2023-03-18T10:14:47.460Z,3.20
2023-03-18T10:17:20.029Z,3.20
2023-03-18T10:19:52.023Z,3.80
2023-03-18T10:22:43.779Z,3.10
2023-03-18T10:25:27.393Z,3.40
2023-03-18T10:28:19.176Z,2.80
2023-03-18T10:31:00.267Z,3.20
2023-03-18T10:33:41.512Z,3.40
2023-03-18T10:36:25.906Z,3.50
2023-03-18T10:39:05.292Z,2.70
2023-03-18T10:41:53.849Z,3.10
2023-03-18T10:47:08.704Z,3.00
2023-03-18T10:53:46.142Z,3.20
2023-03-18T10:56:16.032Z,3.10
2023-03-18T10:58:59.282Z,2.80
2023-03-18T11:01:44.594Z,3.40
2023-03-18T11:04:27.842Z,3.50
2023-03-18T11:07:04.825Z,3.10
2023-03-18T11:09:42.848Z,3.60
2023-03-18T11:12:23.721Z,3.70
2023-03-18T11:14:54.290Z,3.60
2023-03-18T11:17:28.707Z,3.30
2023-03-18T11:20:20.430Z,3.80
2023-03-18T11:22:52.122Z,3.10
2023-03-18T11:25:25.976Z,3.30
2023-03-18T11:27:59.705Z,2.90
2023-03-18T11:30:49.783Z,2.90
2023-03-18T11:33:20.601Z,3.00
2023-03-18T11:35:52.869Z,3.60
2023-03-18T11:38:42.835Z,3.30
2023-03-18T11:41:22.818Z,3.40
2023-03-18T11:44:19.222Z,3.40
2023-03-18T11:46:53.797Z,3.10
2023-03-18T11:49:25.080Z,2.90
2023-03-18T11:51:58.308Z,3.40
2023-03-18T11:54:54.279Z,2.80
2023-03-18T11:57:31.892Z,3.10
2023-03-18T12:00:17.119Z,3.10
2023-03-18T12:03:16.432Z,3.00
2023-03-18T12:05:59.689Z,3.40
2023-03-18T12:08:44.511Z,3.50
2023-03-18T12:11:23.067Z,3.20
2023-03-18T12:14:03.644Z,2.80
2023-03-18T12:16:50.124Z,3.50
2023-03-18T12:19:44.387Z,3.00
2023-03-18T12:22:31.954Z,3.30
2023-03-18T12:25:31.642Z,3.10
2023-03-18T12:28:10.975Z,3.30
2023-03-18T12:30:56.752Z,3.40
2023-03-18T12:33:42.789Z,3.00
2023-03-18T12:36:22.731Z,2.80
2023-03-18T12:39:30.609Z,2.80
2023-03-18T12:42:31.024Z,2.40
2023-03-18T12:45:05.557Z,2.50
2023-03-18T12:47:40.834Z,2.70
2023-03-18T12:50:18.694Z,2.00
2023-03-18T12:52:52.258Z,1.80
2023-03-18T12:55:32.757Z,2.10
2023-03-18T12:58:22.581Z,2.00
2023-03-18T13:01:07.819Z,2.30
2023-03-18T13:03:43.121Z,2.00
2023-03-18T13:06:18.258Z,2.60
2023-03-18T13:09:06.312Z,2.90
2023-03-18T13:11:52.335Z,2.40
2023-03-18T13:14:30.296Z,2.60
2023-03-18T13:17:01.566Z,3.20
2023-03-18T13:19:41.580Z,2.60
2023-03-18T13:22:28.575Z,2.50
2023-03-18T13:25:08.353Z,2.40
2023-03-18T13:28:00.951Z,2.70
2023-03-18T13:30:53.579Z,3.10
2023-03-18T13:33:55.560Z,2.40
2023-03-18T13:36:55.213Z,2.50
2023-03-18T13:39:59.943Z,2.40
2023-03-18T13:42:31.083Z,3.00
2023-03-18T13:45:07.142Z,2.90
2023-03-18T13:47:40.953Z,3.10
2023-03-18T13:50:32.081Z,3.20
2023-03-18T13:53:10.325Z,3.20
2023-03-18T13:55:50.774Z,3.20
2023-03-18T13:58:23.425Z,3.30
2023-03-18T14:01:25.989Z,3.30
2023-03-18T14:03:58.867Z,3.80
2023-03-18T14:06:52.045Z,3.40
2023-03-18T14:09:33.775Z,3.40
2023-03-18T14:12:37.781Z,2.70
2023-03-18T14:15:44.750Z,2.80
2023-03-18T14:18:28.386Z,2.70
2023-03-18T14:21:04.983Z,3.20
2023-03-18T14:23:39.850Z,2.90
2023-03-18T14:26:20.348Z,3.30
2023-03-18T14:28:54.437Z,3.30
2023-03-18T14:31:55.858Z,3.50
2023-03-18T14:34:28.771Z,3.70
2023-03-18T14:37:32.060Z,3.90
2023-03-18T14:40:06.798Z,3.90
2023-03-18T14:42:57.017Z,4.10
2023-03-18T14:45:30.796Z,4.60
2023-03-18T14:48:07.758Z,4.00
2023-03-18T14:50:52.170Z,3.90
2023-03-18T14:53:33.880Z,4.20
2023-03-18T14:56:05.099Z,4.70
2023-03-18T14:58:38.258Z,4.60
2023-03-18T15:01:13.587Z,4.80
2023-03-18T15:03:45.917Z,4.40
2023-03-18T15:06:21.319Z,4.90
2023-03-18T15:08:58.652Z,4.40
2023-03-18T15:11:35.097Z,5.10
2023-03-18T15:14:16.945Z,4.70
2023-03-18T15:16:50.897Z,5.30
2023-03-18T15:19:23.193Z,4.80
2023-03-18T15:21:53.745Z,5.00
2023-03-18T15:24:31.503Z,5.40
2023-03-18T15:27:08.700Z,4.80
2023-03-18T15:29:44.553Z,4.90
2023-03-18T15:32:20.401Z,5.50
2023-03-18T15:34:57.380Z,5.60
2023-03-18T15:37:40.283Z,5.90
2023-03-18T15:40:40.311Z,6.50
2023-03-18T15:43:27.795Z,6.00
2023-03-18T15:46:00.352Z,6.10
2023-03-18T15:48:35.072Z,9.60
2023-03-18T15:51:10.983Z,6.80
2023-03-18T15:53:47.312Z,6.90
2023-03-18T15:56:27.411Z,6.50
2023-03-18T16:01:30.240Z,6.40
2023-03-18T16:04:05.099Z,6.40
2023-03-18T16:06:39.309Z,5.80
2023-03-18T16:09:20.807Z,6.20
2023-03-18T16:11:59.107Z,6.10
2023-03-18T16:14:40.289Z,6.20
2023-03-18T16:17:22.203Z,6.00
2023-03-18T16:19:55.269Z,6.10
2023-03-18T16:22:25.902Z,6.50
2023-03-18T16:24:55.689Z,5.90
2023-03-18T16:27:38.337Z,7.20
2023-03-18T16:30:20.455Z,5.30
2023-03-18T16:32:52.579Z,5.80
2023-03-18T16:35:24.963Z,5.40
2023-03-18T16:37:57.350Z,6.20
2023-03-18T16:40:33.184Z,5.90
2023-03-18T16:43:03.300Z,5.90
2023-03-18T16:45:34.434Z,6.30
2023-03-18T16:48:08.068Z,5.20
2023-03-18T16:50:42.093Z,5.60
2023-03-18T16:53:20.250Z,5.50
2023-03-18T16:55:53.281Z,6.50
2023-03-18T16:58:26.757Z,6.70
2023-03-18T17:00:59.142Z,6.70
2023-03-18T17:03:31.183Z,6.80
2023-03-18T17:06:05.963Z,6.70
2023-03-18T17:08:36.869Z,6.90
2023-03-18T17:11:08.244Z,6.00
2023-03-18T17:13:47.269Z,6.20
2023-03-18T17:16:20.094Z,5.40
2023-03-18T17:18:52.599Z,5.50
2023-03-18T17:21:22.099Z,5.20
2023-03-18T17:23:51.729Z,5.50
2023-03-18T17:26:24.089Z,4.80
2023-03-18T17:28:53.995Z,5.30
2023-03-18T17:31:24.056Z,5.20
2023-03-18T17:33:57.646Z,5.60
2023-03-18T17:36:27.831Z,6.20
2023-03-18T17:38:59.708Z,5.40
2023-03-18T17:41:31.689Z,5.50
2023-03-18T17:44:25.540Z,5.40
2023-03-18T17:46:56.483Z,6.30
2023-03-18T17:49:27.635Z,5.90
2023-03-18T17:51:57.364Z,6.00
2023-03-18T17:54:26.599Z,5.80
2023-03-18T17:56:56.189Z,6.00
2023-03-18T17:59:26.649Z,5.70
2023-03-18T18:01:56.111Z,6.00
2023-03-18T18:04:26.978Z,6.10
2023-03-18T18:06:56.594Z,6.40
2023-03-18T18:09:28.242Z,6.20
2023-03-18T18:12:01.067Z,7.00
2023-03-18T18:14:33.018Z,6.80
2023-03-18T18:17:02.604Z,7.20
2023-03-18T18:19:35.278Z,6.70
2023-03-18T18:22:05.700Z,6.50
2023-03-18T18:24:36.131Z,6.90
2023-03-18T18:27:11.847Z,7.10
2023-03-18T18:29:43.149Z,6.80
2023-03-18T18:32:22.230Z,6.80
2023-03-18T18:34:54.046Z,7.00
2023-03-18T18:37:29.465Z,7.40
2023-03-18T18:40:02.267Z,7.50
2023-03-18T18:42:42.051Z,7.60
2023-03-18T18:45:19.958Z,7.00
2023-03-18T18:47:52.317Z,7.00
2023-03-18T18:50:30.216Z,8.40
2023-03-18T18:53:00.397Z,7.50
2023-03-18T18:55:39.331Z,7.90
2023-03-18T18:58:23.280Z,8.70
2023-03-18T19:00:57.862Z,8.40
2023-03-18T19:03:32.348Z,8.00
2023-03-18T19:06:04.530Z,8.30
2023-03-18T19:08:42.697Z,8.10
2023-03-18T19:11:19.765Z,8.00
2023-03-18T19:13:50.030Z,9.00
2023-03-18T19:16:33.839Z,8.90
2023-03-18T19:19:08.362Z,8.70
2023-03-18T19:21:41.197Z,8.70
2023-03-18T19:24:28.389Z,8.80
2023-03-18T19:27:00.960Z,9.20
2023-03-18T19:29:31.941Z,9.30
2023-03-18T19:32:01.615Z,9.30
2023-03-18T19:34:33.243Z,9.90
2023-03-18T19:37:18.968Z,9.10
2023-03-18T19:40:03.890Z,9.80
2023-03-18T19:42:35.138Z,9.50
2023-03-18T19:45:07.250Z,9.30
2023-03-18T19:47:43.914Z,10.50
2023-03-18T19:50:21.219Z,10.20
2023-03-18T19:52:54.555Z,10.20
2023-03-18T19:55:31.792Z,10.40
2023-03-18T19:58:07.978Z,10.40
2023-03-18T20:00:47.446Z,10.40
2023-03-18T20:03:21.699Z,10.60
2023-03-18T20:05:54.295Z,9.90
2023-03-18T20:08:40.638Z,10.30
2023-03-18T20:11:30.044Z,10.00
2023-03-18T20:14:11.814Z,10.80
2023-03-18T20:17:08.958Z,10.60
2023-03-18T20:19:44.101Z,10.90
2023-03-18T20:22:26.672Z,10.50
2023-03-18T20:24:56.143Z,10.20
2023-03-18T20:27:26.066Z,10.20
2023-03-18T20:29:56.310Z,10.80
2023-03-18T20:32:30.600Z,11.00
2023-03-18T20:35:03.762Z,10.70
2023-03-18T20:37:45.612Z,10.70
2023-03-18T20:40:24.799Z,11.00
2023-03-18T20:42:58.920Z,11.40
2023-03-18T20:45:34.090Z,11.90
2023-03-18T20:48:09.220Z,11.80
2023-03-18T20:50:38.851Z,12.00
2023-03-18T20:53:18.775Z,12.10
2023-03-18T20:55:49.635Z,11.50
2023-03-18T20:58:25.486Z,11.90
2023-03-18T21:00:57.326Z,11.40
2023-03-18T21:03:43.849Z,11.70
2023-03-18T21:06:19.276Z,12.20
2023-03-18T21:08:53.571Z,11.80
2023-03-18T21:11:29.415Z,11.70
2023-03-18T21:14:00.704Z,11.70
2023-03-18T21:16:31.522Z,12.60
2023-03-18T21:19:02.447Z,12.00
2023-03-18T21:21:39.593Z,11.90
2023-03-18T21:24:25.097Z,11.80
2023-03-18T21:27:04.678Z,11.90
2023-03-18T21:29:38.007Z,12.50
2023-03-18T21:32:21.630Z,12.30
2023-03-18T21:35:03.073Z,13.20
2023-03-18T21:37:34.878Z,13.00
2023-03-18T21:40:05.376Z,12.90
2023-03-18T21:42:36.821Z,13.40
2023-03-18T21:45:13.840Z,12.60
2023-03-18T21:47:46.534Z,13.10
2023-03-18T21:50:25.509Z,13.40
2023-03-18T21:52:58.776Z,12.70
2023-03-18T21:55:35.669Z,13.50
2023-03-18T21:58:15.645Z,12.90
2023-03-18T22:00:58.349Z,13.40
2023-03-18T22:03:32.756Z,13.20
2023-03-18T22:06:02.462Z,13.20
2023-03-18T22:08:32.085Z,13.50
2023-03-18T22:11:01.590Z,13.10
2023-03-18T22:13:32.654Z,13.50
2023-03-18T22:16:04.620Z,14.00
2023-03-18T22:18:37.833Z,14.30
2023-03-18T22:21:17.176Z,14.30
2023-03-18T22:23:48.167Z,14.30
2023-03-18T22:26:22.382Z,14.10
2023-03-18T22:29:00.906Z,13.50
2023-03-18T22:31:35.277Z,13.90
2023-03-18T22:34:10.150Z,14.40
2023-03-18T22:36:39.417Z,15.20
2023-03-18T22:39:11.402Z,14.80
2023-03-18T22:41:43.104Z,14.60
2023-03-18T22:44:22.779Z,14.90
2023-03-18T22:46:52.629Z,14.40
2023-03-18T22:49:21.825Z,14.90
2023-03-18T22:51:51.048Z,14.10
2023-03-18T22:54:20.762Z,14.30
2023-03-18T22:56:51.360Z,13.70
2023-03-18T22:59:21.170Z,14.10
2023-03-18T23:01:54.137Z,14.90
2023-03-18T23:04:26.776Z,14.20
2023-03-18T23:06:57.066Z,14.00
2023-03-18T23:09:29.897Z,13.50
2023-03-18T23:11:59.854Z,14.40
2023-03-18T23:14:29.578Z,14.80
2023-03-18T23:17:00.288Z,14.30
2023-03-18T23:19:31.040Z,14.50
2023-03-18T23:22:00.139Z,15.00
2023-03-18T23:26:58.863Z,14.20
2023-03-18T23:29:29.468Z,15.30
2023-03-18T23:32:02.122Z,14.10
2023-03-18T23:34:31.947Z,14.60
2023-03-18T23:37:09.179Z,14.40
2023-03-18T23:39:45.810Z,14.30
2023-03-18T23:42:19.263Z,14.40
2023-03-18T23:44:49.340Z,14.20
2023-03-18T23:47:18.852Z,13.50
2023-03-18T23:49:48.333Z,14.10
2023-03-18T23:52:17.991Z,14.10
2023-03-18T23:54:50.398Z,13.60
2023-03-18T23:57:23.085Z,14.40
2023-03-18T23:59:52.539Z,13.90
